»·PEaware :: N2102W KTOA-KPOC

N2102W :: KTOA-KPOC

FLIGHT INFORMATION

Flight Status: Arrived
Operator: Privately registered:
United States
More flights under this callsign
Pilot: Eric G. (5941)
Aircraft: BEECH AIRCRAFT BARON
(BE58)
More flights by this aircraft type
Origin: KTOA Zamperini
United States
Destination: KPOC Brackett
United States
More flights between these airports :: More routes between these airports
Route: LAX170 LIMBO V64 SLI V8 POXKU V363 POM
File this flight plan on PilotEdge
Remarks:
Altitude:
(Current/Filed)
5,000ft
Speed:
(Current/Filed)
175kts
Departed: 02-Aug-23 03:41 PM
Arrived: 02-Aug-23 04:03 PM
Distance/Time
Traveled:
33nm/0:22
Distance/Time
To Go:
Arrived

Flight Plot

Page will automatically refresh every two minutes.

Flight plan parsing failed; only flown route is shown


Map Options




Map Legend


Flown Route
Filed Route
Departure Airport
Arrival Airport
Navaid (VOR, NDB)
Fix

Horizontal Profiles

Position Reports

Time Latitude Longitude Heading Altitude Ground
Speed
02-Aug-23 15:15 33.802020 -118.342000 219 107ft 0kts
02-Aug-23 15:16 33.802020 -118.342000 219 107ft 0kts
02-Aug-23 15:17 33.802020 -118.342000 219 107ft 0kts
02-Aug-23 15:18 33.802167 -118.341855 219 105ft 0kts
02-Aug-23 15:19 33.802167 -118.341855 219 105ft 0kts
02-Aug-23 15:20 33.802167 -118.341855 219 105ft 0kts
02-Aug-23 15:21 33.802163 -118.341859 218 105ft 0kts
02-Aug-23 15:22 33.802163 -118.341859 218 105ft 0kts
02-Aug-23 15:23 33.802163 -118.341859 218 105ft 0kts
02-Aug-23 15:24 33.802163 -118.341859 218 105ft 0kts
02-Aug-23 15:25 33.802163 -118.341859 218 105ft 0kts
02-Aug-23 15:26 33.802163 -118.341859 218 105ft 0kts
02-Aug-23 15:27 33.802163 -118.341859 218 105ft 0kts
02-Aug-23 15:28 33.802163 -118.341859 218 105ft 0kts
02-Aug-23 15:29 33.802163 -118.341859 218 105ft 0kts
02-Aug-23 15:30 33.801831 -118.341829 121 107ft 0kts
02-Aug-23 15:31 33.800888 -118.339994 102 104ft 8kts
02-Aug-23 15:32 33.800112 -118.337613 130 102ft 7kts
02-Aug-23 15:33 33.798156 -118.334709 129 107ft 8kts
02-Aug-23 15:34 33.798966 -118.333423 39 101ft 0kts
02-Aug-23 15:35 33.798966 -118.333423 39 101ft 0kts
02-Aug-23 15:36 33.798966 -118.333423 39 101ft 0kts
02-Aug-23 15:37 33.798966 -118.333423 39 101ft 0kts
02-Aug-23 15:38 33.798966 -118.333423 39 101ft 0kts
02-Aug-23 15:39 33.799579 -118.332908 308 101ft 0kts
02-Aug-23 15:40 33.808151 -118.345154 307 427ft 108kts
02-Aug-23 15:41 33.831897 -118.377658 306 1765ft 145kts
02-Aug-23 15:42 33.853335 -118.417163 290 3220ft 142kts
02-Aug-23 15:43 33.823828 -118.437982 193 4225ft 160kts
02-Aug-23 15:44 33.779534 -118.448060 196 4956ft 167kts
02-Aug-23 15:45 33.756904 -118.411666 71 5012ft 194kts
02-Aug-23 15:46 33.766533 -118.346482 80 5010ft 198kts
02-Aug-23 15:47 33.771271 -118.280121 84 5008ft 199kts
02-Aug-23 15:48 33.775271 -118.214019 84 4992ft 197kts
02-Aug-23 15:49 33.779179 -118.148388 84 4988ft 194kts
02-Aug-23 15:50 33.783166 -118.084278 84 4968ft 193kts
02-Aug-23 15:51 33.790845 -118.020465 70 4970ft 193kts
02-Aug-23 15:52 33.809803 -117.960368 69 4992ft 193kts
02-Aug-23 15:53 33.826488 -117.898571 69 4995ft 194kts
02-Aug-23 15:54 33.860440 -117.853032 8 4997ft 182kts
02-Aug-23 15:55 33.909605 -117.839151 12 5006ft 183kts
02-Aug-23 15:56 33.958148 -117.820946 12 5038ft 182kts
02-Aug-23 15:57 34.010112 -117.808182 4 3616ft 203kts
02-Aug-23 15:58 34.055815 -117.791917 60 2478ft 157kts
02-Aug-23 15:59 34.062069 -117.739963 68 1929ft 147kts
02-Aug-23 16:00 34.089558 -117.740276 267 1660ft 116kts
02-Aug-23 16:01 34.090911 -117.773430 267 1053ft 95kts
02-Aug-23 16:02 34.090772 -117.784309 124 991ft 3kts
02-Aug-23 16:03 34.089777 -117.781353 93 996ft 8kts
02-Aug-23 16:04 34.089776 -117.781256 90 996ft 0kts
02-Aug-23 16:05 34.089776 -117.781256 90 996ft 0kts
02-Aug-23 16:06 34.089776 -117.781256 90 996ft 0kts
02-Aug-23 16:07 34.089776 -117.781256 90 996ft 0kts

Navigation Log

Ident Type
Flight plan parsing failed, navigation log unavailable